createdAt,value
2019-04-25T00:02:03.090Z,26.56
2019-04-25T00:04:31.533Z,26.55
2019-04-25T00:06:59.589Z,26.52
2019-04-25T00:09:29.108Z,26.54
2019-04-25T00:11:59.610Z,26.54
2019-04-25T00:14:28.334Z,26.53
2019-04-25T00:16:56.587Z,26.50
2019-04-25T00:19:24.683Z,26.50
2019-04-25T00:22:07.499Z,26.50
2019-04-25T00:24:45.891Z,26.50
2019-04-25T00:27:13.979Z,26.49
2019-04-25T00:29:43.889Z,26.47
2019-04-25T00:32:11.824Z,26.49
2019-04-25T00:34:40.863Z,26.47
2019-04-25T00:37:09.761Z,26.45
2019-04-25T00:39:37.709Z,26.43
2019-04-25T00:42:05.912Z,26.44
2019-04-25T00:44:33.707Z,26.43
2019-04-25T00:47:02.455Z,26.43
2019-04-25T00:49:32.073Z,26.41
2019-04-25T00:52:01.960Z,26.42
2019-04-25T00:54:31.332Z,26.42
2019-04-25T00:56:59.503Z,26.42
2019-04-25T00:59:39.831Z,26.36
2019-04-25T01:02:22.472Z,26.40
2019-04-25T01:04:52.101Z,26.36
2019-04-25T01:07:20.305Z,26.37
2019-04-25T01:09:48.378Z,26.38
2019-04-25T01:12:16.752Z,26.35
2019-04-25T01:14:45.700Z,26.35
2019-04-25T01:17:14.450Z,26.33
2019-04-25T01:19:44.035Z,26.33
2019-04-25T01:22:14.389Z,26.35
2019-04-25T01:24:43.874Z,26.36
2019-04-25T01:27:13.532Z,26.31
2019-04-25T01:29:41.754Z,26.33
2019-04-25T01:32:11.300Z,26.32
2019-04-25T01:35:01.876Z,26.32
2019-04-25T01:41:03.199Z,26.27
2019-04-25T01:43:52.834Z,26.30
2019-04-25T01:48:55.420Z,26.29
2019-04-25T01:51:25.059Z,26.29
2019-04-25T01:53:54.570Z,26.28
2019-04-25T01:56:24.614Z,26.29
2019-04-25T01:58:54.493Z,26.27
2019-04-25T02:01:24.150Z,26.25
2019-04-25T02:03:54.300Z,26.25
2019-04-25T02:06:23.152Z,26.23
2019-04-25T02:08:53.547Z,26.23
2019-04-25T02:14:05.221Z,26.22
2019-04-25T02:16:33.612Z,26.22
2019-04-25T02:19:04.067Z,26.19
2019-04-25T02:21:33.495Z,26.18
2019-04-25T02:24:02.286Z,26.18
2019-04-25T02:26:31.296Z,26.20
2019-04-25T02:28:59.404Z,26.17
2019-04-25T02:31:27.461Z,26.18
2019-04-25T02:33:57.888Z,26.15
2019-04-25T02:36:25.650Z,26.16
2019-04-25T02:38:57.256Z,26.14
2019-04-25T02:41:25.023Z,26.15
2019-04-25T02:43:57.921Z,26.17
2019-04-25T02:46:41.897Z,26.16
2019-04-25T02:49:35.448Z,26.14
2019-04-25T02:54:47.003Z,26.11
2019-04-25T02:57:15.391Z,26.09
2019-04-25T02:59:45.074Z,26.11
2019-04-25T03:02:15.420Z,26.08
2019-04-25T03:04:44.476Z,26.05
2019-04-25T03:07:17.003Z,26.04
2019-04-25T03:09:44.882Z,26.04
2019-04-25T03:12:26.607Z,26.03
2019-04-25T03:14:44.399Z,26.03
2019-04-25T03:17:14.021Z,26.03
2019-04-25T03:20:01.462Z,26.02
2019-04-25T03:22:30.964Z,26.02
2019-04-25T03:25:00.336Z,26.03
2019-04-25T03:27:28.905Z,26.01
2019-04-25T03:29:57.054Z,26.01
2019-04-25T03:32:27.856Z,25.99
2019-04-25T03:34:54.959Z,26.00
2019-04-25T03:37:23.422Z,25.99
2019-04-25T03:39:53.519Z,25.97
2019-04-25T03:42:24.066Z,25.97
2019-04-25T03:44:53.809Z,25.98
2019-04-25T03:47:23.557Z,25.95
2019-04-25T03:49:53.513Z,25.96
2019-04-25T03:52:23.879Z,25.94
2019-04-25T03:54:53.415Z,25.94
2019-04-25T03:57:23.269Z,25.96
2019-04-25T03:59:53.521Z,25.94
2019-04-25T04:02:23.354Z,25.94
2019-04-25T04:04:51.685Z,25.93
2019-04-25T04:10:07.894Z,25.93
2019-04-25T04:12:36.724Z,25.91
2019-04-25T04:15:06.061Z,25.90
2019-04-25T04:17:48.430Z,25.90
2019-04-25T04:20:35.366Z,25.92
2019-04-25T04:23:11.279Z,25.91
2019-04-25T04:25:40.570Z,25.90
2019-04-25T04:28:08.588Z,25.92
2019-04-25T04:30:36.833Z,25.92
2019-04-25T04:33:04.912Z,25.93
2019-04-25T04:35:33.549Z,25.94
2019-04-25T04:38:04.168Z,25.93
2019-04-25T04:40:34.442Z,25.94
2019-04-25T04:43:02.111Z,25.95
2019-04-25T04:48:03.462Z,25.96
2019-04-25T04:50:33.360Z,25.92
2019-04-25T04:55:35.038Z,25.91
2019-04-25T04:58:04.242Z,25.91
2019-04-25T05:00:33.859Z,25.89
2019-04-25T05:06:03.653Z,25.92
2019-04-25T05:08:34.415Z,25.91
2019-04-25T05:11:04.059Z,25.91
2019-04-25T05:13:34.032Z,25.91
2019-04-25T05:16:03.234Z,25.91
2019-04-25T05:18:38.081Z,25.92
2019-04-25T05:21:04.165Z,25.95
2019-04-25T05:23:32.351Z,25.98
2019-04-25T05:26:00.908Z,26.00
2019-04-25T05:28:28.976Z,26.05
2019-04-25T05:33:37.482Z,26.14
2019-04-25T05:36:05.888Z,26.16
2019-04-25T05:38:34.011Z,26.20
2019-04-25T05:43:41.132Z,26.19
2019-04-25T05:46:09.130Z,26.24
2019-04-25T05:48:37.216Z,26.30
2019-04-25T05:51:05.130Z,26.29
2019-04-25T05:53:33.441Z,26.29
2019-04-25T05:56:01.463Z,26.27
2019-04-25T05:58:30.257Z,26.33
2019-04-25T06:00:58.223Z,26.35
2019-04-25T06:03:27.528Z,26.37
2019-04-25T06:05:56.278Z,26.38
2019-04-25T06:08:46.273Z,26.36
2019-04-25T06:14:18.410Z,26.37
2019-04-25T06:16:47.396Z,26.38
2019-04-25T06:19:34.356Z,26.39
2019-04-25T06:22:03.221Z,26.41
2019-04-25T06:27:28.555Z,26.46
2019-04-25T06:30:17.195Z,26.48
2019-04-25T06:32:45.364Z,26.51
2019-04-25T06:35:14.311Z,26.53
2019-04-25T06:37:43.759Z,26.53
2019-04-25T06:40:13.691Z,26.52
2019-04-25T06:42:43.522Z,26.52
2019-04-25T06:45:30.865Z,26.54
2019-04-25T06:48:17.829Z,26.56
2019-04-25T06:50:45.861Z,26.57
2019-04-25T06:53:34.481Z,26.57
2019-04-25T06:56:22.492Z,26.62
2019-04-25T06:58:51.294Z,26.63
2019-04-25T07:01:19.294Z,26.63
2019-04-25T07:03:47.133Z,26.67
2019-04-25T07:06:15.127Z,26.69
2019-04-25T07:11:30.504Z,26.72
2019-04-25T07:13:58.486Z,26.78
2019-04-25T07:16:27.282Z,26.77
2019-04-25T07:18:58.303Z,26.79
2019-04-25T07:21:26.484Z,26.77
2019-04-25T07:27:03.761Z,26.85
2019-04-25T07:29:51.184Z,26.90
2019-04-25T07:32:24.618Z,26.87
2019-04-25T07:34:53.611Z,26.88
2019-04-25T07:37:22.251Z,26.97
2019-04-25T07:39:50.359Z,27.04
2019-04-25T07:42:18.498Z,26.99
2019-04-25T07:44:52.612Z,27.00
2019-04-25T07:47:18.534Z,26.98
2019-04-25T07:50:04.037Z,27.07
2019-04-25T07:52:16.837Z,26.96
2019-04-25T07:54:44.830Z,27.07
2019-04-25T07:57:13.546Z,27.10
2019-04-25T07:59:43.650Z,27.24
2019-04-25T08:02:13.373Z,27.22
2019-04-25T08:04:42.221Z,27.15
2019-04-25T08:07:10.258Z,27.20
2019-04-25T08:09:38.355Z,27.21
2019-04-25T08:12:06.436Z,27.18
2019-04-25T08:20:09.992Z,27.24
2019-04-25T08:22:50.311Z,27.23
2019-04-25T08:25:07.987Z,27.26
2019-04-25T08:27:36.752Z,27.28
2019-04-25T08:30:06.049Z,27.28
2019-04-25T08:32:35.501Z,27.28
2019-04-25T08:35:03.921Z,27.32
2019-04-25T08:37:31.825Z,27.32
2019-04-25T08:39:59.712Z,27.36
2019-04-25T08:42:27.500Z,27.38
2019-04-25T08:44:55.360Z,27.35
2019-04-25T08:47:24.328Z,27.37
2019-04-25T08:52:35.467Z,27.42
2019-04-25T08:58:01.795Z,27.33
2019-04-25T09:00:59.259Z,27.33
2019-04-25T09:08:44.020Z,27.43
2019-04-25T09:13:47.838Z,27.40
2019-04-25T09:16:16.177Z,27.46
2019-04-25T09:18:45.256Z,27.42
2019-04-25T09:21:13.967Z,27.48
2019-04-25T09:23:43.390Z,27.50
2019-04-25T09:26:11.571Z,27.50
2019-04-25T09:28:40.746Z,27.47
2019-04-25T09:31:09.300Z,27.43
2019-04-25T09:33:37.299Z,27.44
2019-04-25T09:36:06.771Z,27.50
2019-04-25T09:38:36.002Z,27.53
2019-04-25T09:41:04.802Z,27.49
2019-04-25T09:43:33.503Z,27.54
2019-04-25T09:46:21.105Z,27.56
2019-04-25T09:49:08.016Z,27.52
2019-04-25T09:51:39.741Z,27.57
2019-04-25T09:54:28.135Z,27.55
2019-04-25T09:59:48.096Z,27.61
2019-04-25T10:02:16.884Z,27.60
2019-04-25T10:04:46.186Z,27.62
2019-04-25T10:07:14.679Z,27.55
2019-04-25T10:10:01.468Z,27.53
2019-04-25T10:12:29.327Z,27.57
2019-04-25T10:15:20.094Z,27.59
2019-04-25T10:17:48.066Z,27.64
2019-04-25T10:20:16.110Z,27.65
2019-04-25T10:22:44.609Z,27.63
2019-04-25T10:25:13.871Z,27.60
2019-04-25T10:27:44.344Z,27.65
2019-04-25T10:32:46.277Z,27.71
2019-04-25T10:35:14.891Z,27.50
2019-04-25T10:37:45.559Z,27.74
2019-04-25T10:40:14.051Z,27.67
2019-04-25T10:42:44.159Z,27.61
2019-04-25T10:45:21.198Z,27.58
2019-04-25T10:47:41.248Z,27.64
2019-04-25T10:50:09.024Z,27.76
2019-04-25T10:52:37.243Z,27.70
2019-04-25T10:55:05.434Z,27.71
2019-04-25T10:57:34.012Z,27.72
2019-04-25T11:00:07.571Z,27.74
2019-04-25T11:02:33.960Z,27.77
2019-04-25T11:07:42.361Z,27.79
2019-04-25T11:10:10.566Z,27.80
2019-04-25T11:12:38.494Z,27.79
2019-04-25T11:15:06.679Z,27.79
2019-04-25T11:17:34.590Z,27.79
2019-04-25T11:20:03.662Z,27.79
2019-04-25T11:22:32.002Z,27.81
2019-04-25T11:24:59.984Z,27.83
2019-04-25T11:30:10.470Z,27.84
2019-04-25T11:35:18.332Z,27.84
2019-04-25T11:37:46.229Z,27.84
2019-04-25T11:42:54.580Z,27.84
2019-04-25T11:45:22.565Z,27.82
2019-04-25T11:47:50.435Z,27.84
2019-04-25T11:50:18.296Z,27.86
2019-04-25T11:52:46.882Z,27.87
2019-04-25T11:55:14.935Z,27.91
2019-04-25T11:57:48.300Z,27.83
2019-04-25T12:00:21.941Z,27.94
2019-04-25T12:02:43.134Z,27.95
2019-04-25T12:05:11.708Z,27.96
2019-04-25T12:07:39.703Z,28.01
2019-04-25T12:10:08.335Z,27.99
2019-04-25T12:12:37.316Z,28.06
2019-04-25T12:15:05.888Z,28.06
2019-04-25T12:17:35.273Z,28.05
2019-04-25T12:20:03.975Z,28.06
2019-04-25T12:22:34.299Z,28.03
2019-04-25T12:25:04.521Z,28.02
2019-04-25T12:27:32.330Z,28.03
2019-04-25T12:30:00.325Z,28.00
2019-04-25T12:32:28.336Z,28.01
2019-04-25T12:35:15.374Z,28.05
2019-04-25T12:37:44.210Z,28.06
2019-04-25T12:40:14.078Z,28.08
2019-04-25T12:42:44.467Z,27.97
2019-04-25T12:45:31.796Z,28.02
2019-04-25T12:47:59.703Z,28.06
2019-04-25T12:50:27.676Z,28.07
2019-04-25T12:52:56.065Z,28.00
2019-04-25T12:55:36.848Z,28.03
2019-04-25T13:00:54.205Z,28.23
2019-04-25T13:03:19.320Z,28.36
2019-04-25T13:05:47.356Z,28.14
2019-04-25T13:08:15.242Z,28.06
2019-04-25T13:11:08.578Z,28.04
2019-04-25T13:13:31.862Z,28.05
2019-04-25T13:15:59.923Z,28.16
2019-04-25T13:18:27.789Z,28.28
2019-04-25T13:20:57.194Z,28.32
2019-04-25T13:23:25.563Z,28.31
2019-04-25T13:25:54.106Z,28.30
2019-04-25T13:28:42.115Z,28.43
2019-04-25T13:31:28.931Z,28.33
2019-04-25T13:34:15.826Z,28.31
2019-04-25T13:36:44.307Z,28.22
2019-04-25T13:39:34.095Z,28.37
2019-04-25T13:42:03.147Z,28.47
2019-04-25T13:44:31.579Z,28.41
2019-04-25T13:46:59.817Z,28.30
2019-04-25T13:49:27.586Z,28.29
2019-04-25T13:51:55.462Z,28.26
2019-04-25T13:54:24.055Z,28.16
2019-04-25T13:56:53.376Z,28.11
2019-04-25T13:59:21.791Z,28.13
2019-04-25T14:04:39.644Z,28.10
2019-04-25T14:12:15.936Z,28.09
2019-04-25T14:14:44.106Z,28.08
2019-04-25T14:17:33.777Z,28.08
2019-04-25T14:20:21.795Z,28.07
2019-04-25T14:22:49.918Z,28.09
2019-04-25T14:25:18.080Z,28.08
2019-04-25T14:27:45.844Z,28.12
2019-04-25T14:35:22.966Z,28.10
2019-04-25T14:37:50.922Z,28.05
2019-04-25T14:40:18.895Z,28.06
2019-04-25T14:43:06.611Z,28.07
2019-04-25T14:45:56.053Z,28.08
2019-04-25T14:48:23.602Z,28.12
2019-04-25T14:50:53.114Z,28.11
2019-04-25T14:53:21.150Z,28.12
2019-04-25T14:56:07.953Z,28.17
2019-04-25T15:04:05.131Z,28.17
2019-04-25T15:06:33.072Z,28.13
2019-04-25T15:09:01.074Z,28.12
2019-04-25T15:11:29.164Z,28.20
2019-04-25T15:13:57.036Z,28.19
2019-04-25T15:16:25.269Z,28.17
2019-04-25T15:18:53.157Z,28.18
2019-04-25T15:21:40.226Z,28.26
2019-04-25T15:24:07.998Z,28.30
2019-04-25T15:26:36.032Z,28.34
2019-04-25T15:29:03.962Z,28.35
2019-04-25T15:31:32.019Z,28.38
2019-04-25T15:34:02.475Z,28.37
2019-04-25T15:36:50.100Z,28.37
2019-04-25T15:39:36.885Z,28.44
2019-04-25T15:42:23.815Z,28.47
2019-04-25T15:45:10.614Z,28.48
2019-04-25T15:47:38.592Z,28.50
2019-04-25T15:52:55.116Z,28.46
2019-04-25T15:55:42.026Z,28.50
2019-04-25T15:58:09.923Z,28.53
2019-04-25T16:05:47.537Z,29.77
2019-04-25T16:08:15.397Z,32.22
2019-04-25T16:10:43.280Z,33.54
2019-04-25T16:13:11.265Z,33.90
2019-04-25T16:15:41.328Z,33.95
2019-04-25T16:20:44.169Z,33.72
2019-04-25T16:23:12.275Z,32.64
2019-04-25T16:25:59.339Z,30.91
2019-04-25T16:28:27.645Z,29.84
2019-04-25T16:30:56.787Z,29.31
2019-04-25T16:35:58.498Z,28.80
2019-04-25T16:38:26.546Z,28.69
2019-04-25T16:40:54.360Z,28.64
2019-04-25T16:46:02.828Z,28.58
2019-04-25T16:51:04.430Z,28.57
2019-04-25T16:56:06.496Z,28.61
2019-04-25T16:58:53.491Z,28.56
2019-04-25T17:01:21.726Z,28.56
2019-04-25T17:03:49.648Z,28.55
2019-04-25T17:09:05.099Z,28.49
2019-04-25T17:17:21.761Z,28.43
2019-04-25T17:20:01.263Z,28.39
2019-04-25T17:22:30.765Z,28.39
2019-04-25T17:24:58.801Z,28.39
2019-04-25T17:27:26.831Z,28.36
2019-04-25T17:29:55.017Z,28.33
2019-04-25T17:32:51.177Z,28.30
2019-04-25T17:35:18.731Z,28.28
2019-04-25T17:37:51.112Z,28.25
2019-04-25T17:40:22.372Z,28.25
2019-04-25T17:42:50.387Z,28.21
2019-04-25T17:45:23.202Z,28.18
2019-04-25T17:47:54.555Z,28.20
2019-04-25T17:50:20.721Z,28.18
2019-04-25T17:52:48.751Z,28.14
2019-04-25T17:55:16.683Z,28.15
2019-04-25T17:57:44.979Z,28.14
2019-04-25T18:00:20.714Z,28.12
2019-04-25T18:02:58.354Z,28.13
2019-04-25T18:05:19.063Z,28.10
2019-04-25T18:07:47.101Z,28.07
2019-04-25T18:10:15.237Z,28.06
2019-04-25T18:12:43.105Z,28.09
2019-04-25T18:15:12.843Z,28.05
2019-04-25T18:17:40.745Z,28.03
2019-04-25T18:20:16.836Z,28.04
2019-04-25T18:23:18.704Z,28.02
2019-04-25T18:26:11.551Z,28.04
2019-04-25T18:28:43.688Z,28.04
2019-04-25T18:31:11.667Z,28.02
2019-04-25T18:33:39.643Z,28.03
2019-04-25T18:36:17.099Z,28.02
2019-04-25T18:39:02.523Z,27.99
2019-04-25T18:41:35.407Z,28.02
2019-04-25T18:44:04.833Z,28.01
2019-04-25T18:46:36.987Z,28.02
2019-04-25T18:49:05.031Z,28.00
2019-04-25T18:51:32.927Z,27.98
2019-04-25T18:54:23.060Z,27.97
2019-04-25T18:56:58.753Z,27.96
2019-04-25T18:59:44.180Z,27.95
2019-04-25T19:02:40.193Z,27.95
2019-04-25T19:05:39.836Z,27.96
2019-04-25T19:08:08.845Z,27.93
2019-04-25T19:10:36.800Z,27.95
2019-04-25T19:13:12.539Z,27.93
2019-04-25T19:15:34.488Z,27.90
2019-04-25T19:18:02.255Z,27.93
2019-04-25T19:20:30.144Z,27.92
2019-04-25T19:22:58.037Z,27.90
2019-04-25T19:25:25.915Z,27.90
2019-04-25T19:27:53.877Z,27.88
2019-04-25T19:30:22.322Z,27.86
2019-04-25T19:32:50.238Z,27.86
2019-04-25T19:35:18.356Z,27.86
2019-04-25T19:37:46.487Z,27.84
2019-04-25T19:40:22.512Z,27.84
2019-04-25T19:42:53.858Z,27.81
2019-04-25T19:45:21.884Z,27.84
2019-04-25T19:47:49.809Z,27.82
2019-04-25T19:50:17.864Z,27.81
2019-04-25T19:52:46.004Z,27.81
2019-04-25T19:55:14.400Z,27.82
2019-04-25T19:57:42.536Z,27.81
2019-04-25T20:00:10.669Z,27.80
2019-04-25T20:02:48.725Z,27.78
2019-04-25T20:05:22.210Z,27.78
2019-04-25T20:07:55.073Z,27.82
2019-04-25T20:10:31.632Z,27.81
2019-04-25T20:12:59.678Z,27.79
2019-04-25T20:15:28.108Z,27.79
2019-04-25T20:17:56.081Z,27.76
2019-04-25T20:20:24.013Z,27.77
2019-04-25T20:22:52.370Z,27.75
2019-04-25T20:25:20.664Z,27.76
2019-04-25T20:27:48.763Z,27.74
2019-04-25T20:30:17.860Z,27.73
2019-04-25T20:32:47.044Z,27.73
2019-04-25T20:35:15.279Z,27.73
2019-04-25T20:37:43.432Z,27.76
2019-04-25T20:40:11.377Z,27.74
2019-04-25T20:42:39.402Z,27.72
2019-04-25T20:45:07.845Z,27.73
2019-04-25T20:47:36.246Z,27.69
2019-04-25T20:50:04.481Z,27.70
2019-04-25T20:52:32.522Z,27.69
2019-04-25T20:55:00.455Z,27.65
2019-04-25T20:57:28.474Z,27.62
2019-04-25T20:59:56.507Z,27.63
2019-04-25T21:02:24.586Z,27.61
2019-04-25T21:04:52.860Z,27.65
2019-04-25T21:07:21.241Z,27.62
2019-04-25T21:09:49.931Z,27.62
2019-04-25T21:12:17.936Z,27.60
2019-04-25T21:15:14.122Z,27.59
2019-04-25T21:18:05.075Z,27.59
2019-04-25T21:20:32.871Z,27.59
2019-04-25T21:23:01.019Z,27.58
2019-04-25T21:25:29.003Z,27.56
2019-04-25T21:27:56.860Z,27.56
2019-04-25T21:30:25.231Z,27.52
2019-04-25T21:32:57.219Z,27.53
2019-04-25T21:35:25.608Z,27.53
2019-04-25T21:37:53.662Z,27.49
2019-04-25T21:40:55.743Z,27.51
2019-04-25T21:43:26.387Z,27.47
2019-04-25T21:45:54.645Z,27.51
2019-04-25T21:48:22.742Z,27.49
2019-04-25T21:50:51.031Z,27.47
2019-04-25T21:53:21.058Z,27.47
2019-04-25T21:55:49.380Z,27.48
2019-04-25T21:58:17.500Z,27.47
2019-04-25T22:01:02.424Z,27.44
2019-04-25T22:03:30.372Z,27.42
2019-04-25T22:05:58.672Z,27.43
2019-04-25T22:08:26.916Z,27.43
2019-04-25T22:10:55.938Z,27.38
2019-04-25T22:13:24.651Z,27.41
2019-04-25T22:15:52.997Z,27.40
2019-04-25T22:18:21.202Z,27.38
2019-04-25T22:20:49.173Z,27.38
2019-04-25T22:23:17.485Z,27.39
2019-04-25T22:25:45.613Z,27.37
2019-04-25T22:28:13.738Z,27.37
2019-04-25T22:30:43.212Z,27.37
2019-04-25T22:33:28.939Z,27.40
2019-04-25T22:36:04.743Z,27.38
2019-04-25T22:38:32.674Z,27.39
2019-04-25T22:41:01.285Z,27.38
2019-04-25T22:43:31.128Z,27.37
2019-04-25T22:45:59.729Z,27.36
2019-04-25T22:48:47.913Z,27.36
2019-04-25T22:51:15.933Z,27.37
2019-04-25T22:53:44.107Z,27.32
2019-04-25T22:56:12.220Z,27.29
2019-04-25T22:58:40.329Z,27.32
2019-04-25T23:01:14.151Z,27.28
2019-04-25T23:03:44.322Z,27.33
2019-04-25T23:06:12.533Z,27.29
2019-04-25T23:08:40.580Z,26.78
2019-04-25T23:11:08.599Z,27.25
2019-04-25T23:13:36.567Z,27.24
2019-04-25T23:16:05.126Z,27.24
2019-04-25T23:18:33.302Z,27.24
2019-04-25T23:21:01.227Z,27.26
2019-04-25T23:23:32.291Z,27.23
2019-04-25T23:26:12.784Z,27.23
2019-04-25T23:28:41.944Z,27.24
2019-04-25T23:31:13.054Z,27.21
2019-04-25T23:33:41.049Z,27.20
2019-04-25T23:36:09.411Z,27.20
2019-04-25T23:38:37.412Z,27.20
2019-04-25T23:41:05.928Z,27.20
2019-04-25T23:43:34.062Z,27.21
2019-04-25T23:46:02.167Z,27.21
2019-04-25T23:48:30.433Z,27.17
2019-04-25T23:50:58.343Z,27.15
2019-04-25T23:53:26.359Z,27.15
2019-04-25T23:55:54.394Z,27.12
2019-04-25T23:58:22.306Z,27.12
